sensor_id;sensor_type;location;lat;lon;timestamp;temperature;humidity
71188;DHT22;58893;53.130;8.158;2022-07-29T00:00:41;19.00;53.00
71188;DHT22;58893;53.130;8.158;2022-07-29T00:03:10;19.00;53.00
71188;DHT22;58893;53.130;8.158;2022-07-29T00:05:38;19.00;53.10
71188;DHT22;58893;53.130;8.158;2022-07-29T00:08:04;19.00;53.10
71188;DHT22;58893;53.130;8.158;2022-07-29T00:10:30;19.00;53.20
71188;DHT22;58893;53.130;8.158;2022-07-29T00:12:56;19.00;53.30
71188;DHT22;58893;53.130;8.158;2022-07-29T00:15:21;19.00;53.50
71188;DHT22;58893;53.130;8.158;2022-07-29T00:17:47;19.00;53.60
71188;DHT22;58893;53.130;8.158;2022-07-29T00:20:12;19.00;53.70
71188;DHT22;58893;53.130;8.158;2022-07-29T00:22:39;19.00;53.80
71188;DHT22;58893;53.130;8.158;2022-07-29T00:25:06;19.00;53.80
71188;DHT22;58893;53.130;8.158;2022-07-29T00:27:32;19.00;53.80
71188;DHT22;58893;53.130;8.158;2022-07-29T00:29:57;18.90;53.80
71188;DHT22;58893;53.130;8.158;2022-07-29T00:32:23;18.90;53.90
71188;DHT22;58893;53.130;8.158;2022-07-29T00:34:49;18.90;54.10
71188;DHT22;58893;53.130;8.158;2022-07-29T00:37:33;18.90;54.10
71188;DHT22;58893;53.130;8.158;2022-07-29T00:39:58;18.90;54.10
71188;DHT22;58893;53.130;8.158;2022-07-29T00:42:24;18.90;54.10
71188;DHT22;58893;53.130;8.158;2022-07-29T00:44:50;18.90;54.20
71188;DHT22;58893;53.130;8.158;2022-07-29T00:47:15;18.90;54.20
71188;DHT22;58893;53.130;8.158;2022-07-29T00:49:41;18.80;54.20
71188;DHT22;58893;53.130;8.158;2022-07-29T00:52:09;18.80;54.20
71188;DHT22;58893;53.130;8.158;2022-07-29T00:54:35;18.80;54.30
71188;DHT22;58893;53.130;8.158;2022-07-29T00:57:02;18.80;54.40
71188;DHT22;58893;53.130;8.158;2022-07-29T00:59:28;18.80;54.40
71188;DHT22;58893;53.130;8.158;2022-07-29T01:01:54;18.80;54.40
71188;DHT22;58893;53.130;8.158;2022-07-29T01:04:21;18.80;54.50
71188;DHT22;58893;53.130;8.158;2022-07-29T01:06:48;18.80;54.60
71188;DHT22;58893;53.130;8.158;2022-07-29T01:09:15;18.80;54.70
71188;DHT22;58893;53.130;8.158;2022-07-29T01:11:42;18.80;54.60
71188;DHT22;58893;53.130;8.158;2022-07-29T01:14:09;18.70;54.60
71188;DHT22;58893;53.130;8.158;2022-07-29T01:16:58;18.70;54.70
71188;DHT22;58893;53.130;8.158;2022-07-29T01:19:53;18.70;54.70
71188;DHT22;58893;53.130;8.158;2022-07-29T01:30:12;18.60;54.90
71188;DHT22;58893;53.130;8.158;2022-07-29T01:32:39;18.60;55.00
71188;DHT22;58893;53.130;8.158;2022-07-29T01:35:09;18.60;55.00
71188;DHT22;58893;53.130;8.158;2022-07-29T01:37:50;18.60;55.00
71188;DHT22;58893;53.130;8.158;2022-07-29T01:40:24;18.60;55.00
71188;DHT22;58893;53.130;8.158;2022-07-29T01:42:57;18.60;55.00
71188;DHT22;58893;53.130;8.158;2022-07-29T01:45:40;18.60;55.00
71188;DHT22;58893;53.130;8.158;2022-07-29T01:50:40;18.50;54.90
71188;DHT22;58893;53.130;8.158;2022-07-29T01:53:09;18.50;55.00
71188;DHT22;58893;53.130;8.158;2022-07-29T01:55:38;18.50;55.00
71188;DHT22;58893;53.130;8.158;2022-07-29T01:58:07;18.50;55.00
71188;DHT22;58893;53.130;8.158;2022-07-29T02:00:34;18.50;54.90
71188;DHT22;58893;53.130;8.158;2022-07-29T02:03:04;18.50;54.90
71188;DHT22;58893;53.130;8.158;2022-07-29T02:05:31;18.40;54.80
71188;DHT22;58893;53.130;8.158;2022-07-29T02:07:58;18.40;54.90
71188;DHT22;58893;53.130;8.158;2022-07-29T02:10:28;18.40;55.00
71188;DHT22;58893;53.130;8.158;2022-07-29T02:12:56;18.40;55.00
71188;DHT22;58893;53.130;8.158;2022-07-29T02:15:27;18.40;55.00
71188;DHT22;58893;53.130;8.158;2022-07-29T02:18:08;18.40;55.00
71188;DHT22;58893;53.130;8.158;2022-07-29T02:20:36;18.40;55.10
71188;DHT22;58893;53.130;8.158;2022-07-29T02:23:02;18.30;55.00
71188;DHT22;58893;53.130;8.158;2022-07-29T02:25:29;18.30;55.00
71188;DHT22;58893;53.130;8.158;2022-07-29T02:27:55;18.30;55.00
71188;DHT22;58893;53.130;8.158;2022-07-29T02:30:22;18.30;55.10
71188;DHT22;58893;53.130;8.158;2022-07-29T02:32:49;18.30;55.10
71188;DHT22;58893;53.130;8.158;2022-07-29T02:35:17;18.30;55.10
71188;DHT22;58893;53.130;8.158;2022-07-29T02:37:44;18.30;55.00
71188;DHT22;58893;53.130;8.158;2022-07-29T02:40:31;18.30;55.00
71188;DHT22;58893;53.130;8.158;2022-07-29T02:42:58;18.30;55.10
71188;DHT22;58893;53.130;8.158;2022-07-29T02:45:23;18.30;55.00
71188;DHT22;58893;53.130;8.158;2022-07-29T02:47:50;18.30;55.00
71188;DHT22;58893;53.130;8.158;2022-07-29T02:50:31;18.30;55.00
71188;DHT22;58893;53.130;8.158;2022-07-29T02:53:02;18.30;55.10
71188;DHT22;58893;53.130;8.158;2022-07-29T02:55:34;18.30;55.20
71188;DHT22;58893;53.130;8.158;2022-07-29T03:00:37;18.30;55.30
71188;DHT22;58893;53.130;8.158;2022-07-29T03:03:05;18.30;55.40
71188;DHT22;58893;53.130;8.158;2022-07-29T03:05:33;18.30;55.40
71188;DHT22;58893;53.130;8.158;2022-07-29T03:08:04;18.30;55.40
71188;DHT22;58893;53.130;8.158;2022-07-29T03:10:30;18.30;55.40
71188;DHT22;58893;53.130;8.158;2022-07-29T03:12:57;18.30;55.40
71188;DHT22;58893;53.130;8.158;2022-07-29T03:15:23;18.30;55.30
71188;DHT22;58893;53.130;8.158;2022-07-29T03:17:50;18.30;55.40
71188;DHT22;58893;53.130;8.158;2022-07-29T03:20:16;18.20;55.30
71188;DHT22;58893;53.130;8.158;2022-07-29T03:22:43;18.20;55.90
71188;DHT22;58893;53.130;8.158;2022-07-29T03:25:18;18.20;55.30
71188;DHT22;58893;53.130;8.158;2022-07-29T03:27:44;18.20;55.40
71188;DHT22;58893;53.130;8.158;2022-07-29T03:30:11;18.20;55.40
71188;DHT22;58893;53.130;8.158;2022-07-29T03:32:37;18.20;55.40
71188;DHT22;58893;53.130;8.158;2022-07-29T03:35:04;18.20;55.40
71188;DHT22;58893;53.130;8.158;2022-07-29T03:37:30;18.20;55.40
71188;DHT22;58893;53.130;8.158;2022-07-29T03:39:57;18.20;55.50
71188;DHT22;58893;53.130;8.158;2022-07-29T03:42:31;18.10;55.40
71188;DHT22;58893;53.130;8.158;2022-07-29T03:44:59;18.10;55.50
71188;DHT22;58893;53.130;8.158;2022-07-29T03:47:28;18.10;55.50
71188;DHT22;58893;53.130;8.158;2022-07-29T03:50:00;18.10;55.50
71188;DHT22;58893;53.130;8.158;2022-07-29T03:52:27;18.10;55.50
71188;DHT22;58893;53.130;8.158;2022-07-29T03:54:53;18.10;55.60
71188;DHT22;58893;53.130;8.158;2022-07-29T03:57:20;18.10;55.60
71188;DHT22;58893;53.130;8.158;2022-07-29T03:59:50;18.10;55.60
71188;DHT22;58893;53.130;8.158;2022-07-29T04:02:16;18.10;55.60
71188;DHT22;58893;53.130;8.158;2022-07-29T04:04:42;18.10;55.60
71188;DHT22;58893;53.130;8.158;2022-07-29T04:07:14;18.10;55.60
71188;DHT22;58893;53.130;8.158;2022-07-29T04:09:40;18.10;55.60
71188;DHT22;58893;53.130;8.158;2022-07-29T04:12:07;18.10;55.70
71188;DHT22;58893;53.130;8.158;2022-07-29T04:14:33;18.10;55.70
71188;DHT22;58893;53.130;8.158;2022-07-29T04:17:00;18.10;55.60
71188;DHT22;58893;53.130;8.158;2022-07-29T04:19:26;18.10;55.70
71188;DHT22;58893;53.130;8.158;2022-07-29T04:21:51;18.00;55.70
71188;DHT22;58893;53.130;8.158;2022-07-29T04:24:17;18.00;55.80
71188;DHT22;58893;53.130;8.158;2022-07-29T04:26:43;18.00;55.90
71188;DHT22;58893;53.130;8.158;2022-07-29T04:29:10;18.00;55.90
71188;DHT22;58893;53.130;8.158;2022-07-29T04:31:37;18.00;56.20
71188;DHT22;58893;53.130;8.158;2022-07-29T04:34:03;18.00;55.90
71188;DHT22;58893;53.130;8.158;2022-07-29T04:36:28;18.00;56.00
71188;DHT22;58893;53.130;8.158;2022-07-29T04:38:54;18.00;56.10
71188;DHT22;58893;53.130;8.158;2022-07-29T04:41:20;18.00;56.60
71188;DHT22;58893;53.130;8.158;2022-07-29T04:43:47;18.00;56.00
71188;DHT22;58893;53.130;8.158;2022-07-29T04:46:13;18.00;56.00
71188;DHT22;58893;53.130;8.158;2022-07-29T04:48:39;18.00;56.10
71188;DHT22;58893;53.130;8.158;2022-07-29T04:51:04;18.00;56.00
71188;DHT22;58893;53.130;8.158;2022-07-29T04:53:30;18.00;55.90
71188;DHT22;58893;53.130;8.158;2022-07-29T04:55:55;18.00;56.00
71188;DHT22;58893;53.130;8.158;2022-07-29T04:58:21;18.00;56.10
71188;DHT22;58893;53.130;8.158;2022-07-29T05:00:49;18.00;56.10
71188;DHT22;58893;53.130;8.158;2022-07-29T05:03:14;18.00;56.10
71188;DHT22;58893;53.130;8.158;2022-07-29T05:05:40;18.00;56.20
71188;DHT22;58893;53.130;8.158;2022-07-29T05:08:06;18.00;56.30
71188;DHT22;58893;53.130;8.158;2022-07-29T05:10:32;18.00;56.40
71188;DHT22;58893;53.130;8.158;2022-07-29T05:12:59;18.00;56.50
71188;DHT22;58893;53.130;8.158;2022-07-29T05:15:24;18.00;56.50
71188;DHT22;58893;53.130;8.158;2022-07-29T05:17:50;18.00;56.40
71188;DHT22;58893;53.130;8.158;2022-07-29T05:20:16;18.00;56.30
71188;DHT22;58893;53.130;8.158;2022-07-29T05:22:41;18.00;56.40
71188;DHT22;58893;53.130;8.158;2022-07-29T05:25:07;18.00;56.40
71188;DHT22;58893;53.130;8.158;2022-07-29T05:27:35;18.00;56.50
71188;DHT22;58893;53.130;8.158;2022-07-29T05:30:01;18.00;56.50
71188;DHT22;58893;53.130;8.158;2022-07-29T05:32:26;18.00;56.50
71188;DHT22;58893;53.130;8.158;2022-07-29T05:34:52;18.10;56.60
71188;DHT22;58893;53.130;8.158;2022-07-29T05:37:20;18.10;56.70
71188;DHT22;58893;53.130;8.158;2022-07-29T05:39:46;18.10;56.80
71188;DHT22;58893;53.130;8.158;2022-07-29T05:42:12;18.10;56.90
71188;DHT22;58893;53.130;8.158;2022-07-29T05:44:38;18.10;56.90
71188;DHT22;58893;53.130;8.158;2022-07-29T05:47:04;18.10;56.80
71188;DHT22;58893;53.130;8.158;2022-07-29T05:49:29;18.10;56.80
71188;DHT22;58893;53.130;8.158;2022-07-29T05:51:55;18.10;56.90
71188;DHT22;58893;53.130;8.158;2022-07-29T05:54:21;18.20;57.00
71188;DHT22;58893;53.130;8.158;2022-07-29T05:56:46;18.20;57.00
71188;DHT22;58893;53.130;8.158;2022-07-29T05:59:12;18.20;57.00
71188;DHT22;58893;53.130;8.158;2022-07-29T06:01:37;18.30;57.10
71188;DHT22;58893;53.130;8.158;2022-07-29T06:04:05;18.30;57.00
71188;DHT22;58893;53.130;8.158;2022-07-29T06:06:32;18.30;57.10
71188;DHT22;58893;53.130;8.158;2022-07-29T06:08:57;18.30;57.10
71188;DHT22;58893;53.130;8.158;2022-07-29T06:11:23;18.30;57.20
71188;DHT22;58893;53.130;8.158;2022-07-29T06:13:49;18.40;57.20
71188;DHT22;58893;53.130;8.158;2022-07-29T06:16:14;18.40;57.20
71188;DHT22;58893;53.130;8.158;2022-07-29T06:18:40;18.40;57.20
71188;DHT22;58893;53.130;8.158;2022-07-29T06:21:09;18.40;57.20
71188;DHT22;58893;53.130;8.158;2022-07-29T06:23:36;18.40;57.20
71188;DHT22;58893;53.130;8.158;2022-07-29T06:26:02;18.50;57.30
71188;DHT22;58893;53.130;8.158;2022-07-29T06:28:28;18.50;57.20
71188;DHT22;58893;53.130;8.158;2022-07-29T06:30:53;18.50;57.30
71188;DHT22;58893;53.130;8.158;2022-07-29T06:33:19;18.50;57.30
71188;DHT22;58893;53.130;8.158;2022-07-29T06:35:45;18.50;57.30
71188;DHT22;58893;53.130;8.158;2022-07-29T06:38:13;18.50;57.40
71188;DHT22;58893;53.130;8.158;2022-07-29T06:40:44;18.60;57.60
71188;DHT22;58893;53.130;8.158;2022-07-29T06:43:33;18.60;57.60
71188;DHT22;58893;53.130;8.158;2022-07-29T06:46:10;18.60;58.20
71188;DHT22;58893;53.130;8.158;2022-07-29T06:48:36;18.60;57.60
71188;DHT22;58893;53.130;8.158;2022-07-29T06:51:03;18.60;57.60
71188;DHT22;58893;53.130;8.158;2022-07-29T06:53:30;18.60;57.60
71188;DHT22;58893;53.130;8.158;2022-07-29T06:55:56;18.60;57.60
71188;DHT22;58893;53.130;8.158;2022-07-29T06:58:23;18.60;57.60
71188;DHT22;58893;53.130;8.158;2022-07-29T07:00:50;18.60;57.60
71188;DHT22;58893;53.130;8.158;2022-07-29T07:03:16;18.70;57.80
71188;DHT22;58893;53.130;8.158;2022-07-29T07:05:42;18.70;57.80
71188;DHT22;58893;53.130;8.158;2022-07-29T07:08:08;18.70;57.80
71188;DHT22;58893;53.130;8.158;2022-07-29T07:10:34;18.80;57.90
71188;DHT22;58893;53.130;8.158;2022-07-29T07:13:00;18.80;57.90
71188;DHT22;58893;53.130;8.158;2022-07-29T07:15:26;18.90;58.10
71188;DHT22;58893;53.130;8.158;2022-07-29T07:17:52;18.90;58.20
71188;DHT22;58893;53.130;8.158;2022-07-29T07:20:18;18.90;58.20
71188;DHT22;58893;53.130;8.158;2022-07-29T07:22:44;19.00;58.30
71188;DHT22;58893;53.130;8.158;2022-07-29T07:25:10;19.10;58.40
71188;DHT22;58893;53.130;8.158;2022-07-29T07:27:37;19.10;58.10
71188;DHT22;58893;53.130;8.158;2022-07-29T07:30:04;19.10;58.00
71188;DHT22;58893;53.130;8.158;2022-07-29T07:32:31;19.20;57.90
71188;DHT22;58893;53.130;8.158;2022-07-29T07:34:57;19.30;58.20
71188;DHT22;58893;53.130;8.158;2022-07-29T07:37:24;19.40;57.70
71188;DHT22;58893;53.130;8.158;2022-07-29T07:39:50;19.50;57.60
71188;DHT22;58893;53.130;8.158;2022-07-29T07:42:17;19.60;57.80
71188;DHT22;58893;53.130;8.158;2022-07-29T07:44:42;19.70;57.30
71188;DHT22;58893;53.130;8.158;2022-07-29T07:47:08;19.80;56.80
71188;DHT22;58893;53.130;8.158;2022-07-29T07:49:34;19.90;56.20
71188;DHT22;58893;53.130;8.158;2022-07-29T07:52:00;20.00;55.90
71188;DHT22;58893;53.130;8.158;2022-07-29T07:54:26;20.10;55.50
71188;DHT22;58893;53.130;8.158;2022-07-29T07:56:51;20.20;55.80
71188;DHT22;58893;53.130;8.158;2022-07-29T07:59:17;20.30;55.80
71188;DHT22;58893;53.130;8.158;2022-07-29T08:01:43;20.40;55.20
71188;DHT22;58893;53.130;8.158;2022-07-29T08:04:11;20.50;55.10
71188;DHT22;58893;53.130;8.158;2022-07-29T08:06:37;20.60;54.70
71188;DHT22;58893;53.130;8.158;2022-07-29T08:09:06;20.70;55.00
71188;DHT22;58893;53.130;8.158;2022-07-29T08:11:31;20.80;55.00
71188;DHT22;58893;53.130;8.158;2022-07-29T08:13:57;20.90;54.80
71188;DHT22;58893;53.130;8.158;2022-07-29T08:16:23;21.00;54.30
71188;DHT22;58893;53.130;8.158;2022-07-29T08:18:51;21.00;54.00
71188;DHT22;58893;53.130;8.158;2022-07-29T08:21:17;21.10;53.80
71188;DHT22;58893;53.130;8.158;2022-07-29T08:23:44;21.20;53.90
71188;DHT22;58893;53.130;8.158;2022-07-29T08:26:18;21.30;53.60
71188;DHT22;58893;53.130;8.158;2022-07-29T08:28:45;21.30;53.30
71188;DHT22;58893;53.130;8.158;2022-07-29T08:31:14;21.40;54.30
71188;DHT22;58893;53.130;8.158;2022-07-29T08:33:40;21.40;53.10
71188;DHT22;58893;53.130;8.158;2022-07-29T08:36:06;21.50;53.00
71188;DHT22;58893;53.130;8.158;2022-07-29T08:38:32;21.50;53.40
71188;DHT22;58893;53.130;8.158;2022-07-29T08:41:00;21.60;53.30
71188;DHT22;58893;53.130;8.158;2022-07-29T08:43:27;21.60;52.70
71188;DHT22;58893;53.130;8.158;2022-07-29T08:45:53;21.70;53.60
71188;DHT22;58893;53.130;8.158;2022-07-29T08:48:21;21.70;52.60
71188;DHT22;58893;53.130;8.158;2022-07-29T08:50:48;21.70;52.70
71188;DHT22;58893;53.130;8.158;2022-07-29T08:53:17;21.80;52.90
71188;DHT22;58893;53.130;8.158;2022-07-29T08:55:45;21.80;53.10
71188;DHT22;58893;53.130;8.158;2022-07-29T08:58:11;21.80;52.90
71188;DHT22;58893;53.130;8.158;2022-07-29T09:00:41;21.90;52.90
71188;DHT22;58893;53.130;8.158;2022-07-29T09:03:08;21.90;52.80
71188;DHT22;58893;53.130;8.158;2022-07-29T09:05:34;21.90;52.70
71188;DHT22;58893;53.130;8.158;2022-07-29T09:08:01;22.00;52.90
71188;DHT22;58893;53.130;8.158;2022-07-29T09:10:27;22.00;53.00
71188;DHT22;58893;53.130;8.158;2022-07-29T09:12:54;22.10;53.00
71188;DHT22;58893;53.130;8.158;2022-07-29T09:15:20;22.00;52.60
71188;DHT22;58893;53.130;8.158;2022-07-29T09:17:49;22.00;52.80
71188;DHT22;58893;53.130;8.158;2022-07-29T09:20:20;22.10;53.20
71188;DHT22;58893;53.130;8.158;2022-07-29T09:22:48;22.20;53.30
71188;DHT22;58893;53.130;8.158;2022-07-29T09:28:11;22.30;52.70
71188;DHT22;58893;53.130;8.158;2022-07-29T09:30:53;22.30;52.50
71188;DHT22;58893;53.130;8.158;2022-07-29T09:33:21;22.30;52.40
71188;DHT22;58893;53.130;8.158;2022-07-29T09:36:07;22.30;52.30
71188;DHT22;58893;53.130;8.158;2022-07-29T09:38:34;22.30;52.40
71188;DHT22;58893;53.130;8.158;2022-07-29T09:41:03;22.30;52.70
71188;DHT22;58893;53.130;8.158;2022-07-29T09:43:29;22.30;52.80
71188;DHT22;58893;53.130;8.158;2022-07-29T09:45:55;22.30;52.80
71188;DHT22;58893;53.130;8.158;2022-07-29T09:48:23;22.30;53.20
71188;DHT22;58893;53.130;8.158;2022-07-29T09:50:49;22.30;53.30
71188;DHT22;58893;53.130;8.158;2022-07-29T09:53:38;22.30;53.40
71188;DHT22;58893;53.130;8.158;2022-07-29T09:56:05;22.40;53.00
71188;DHT22;58893;53.130;8.158;2022-07-29T09:58:31;22.40;53.00
71188;DHT22;58893;53.130;8.158;2022-07-29T10:00:59;22.40;53.60
71188;DHT22;58893;53.130;8.158;2022-07-29T10:03:25;22.40;52.70
71188;DHT22;58893;53.130;8.158;2022-07-29T10:06:11;22.50;52.40
71188;DHT22;58893;53.130;8.158;2022-07-29T10:08:38;22.60;52.50
71188;DHT22;58893;53.130;8.158;2022-07-29T10:11:16;22.60;52.20
71188;DHT22;58893;53.130;8.158;2022-07-29T10:13:44;22.70;52.40
71188;DHT22;58893;53.130;8.158;2022-07-29T10:16:11;22.70;52.20
71188;DHT22;58893;53.130;8.158;2022-07-29T10:18:38;22.70;51.60
71188;DHT22;58893;53.130;8.158;2022-07-29T10:21:05;22.70;51.10
71188;DHT22;58893;53.130;8.158;2022-07-29T10:23:31;22.80;50.80
71188;DHT22;58893;53.130;8.158;2022-07-29T10:25:57;22.80;50.30
71188;DHT22;58893;53.130;8.158;2022-07-29T10:28:23;22.80;49.70
71188;DHT22;58893;53.130;8.158;2022-07-29T10:30:51;22.80;50.20
71188;DHT22;58893;53.130;8.158;2022-07-29T10:33:48;22.80;49.60
71188;DHT22;58893;53.130;8.158;2022-07-29T10:42:25;22.90;49.60
71188;DHT22;58893;53.130;8.158;2022-07-29T10:44:54;23.00;50.00
71188;DHT22;58893;53.130;8.158;2022-07-29T10:47:29;23.00;49.90
71188;DHT22;58893;53.130;8.158;2022-07-29T10:50:00;23.00;49.60
71188;DHT22;58893;53.130;8.158;2022-07-29T10:55:39;23.20;49.80
71188;DHT22;58893;53.130;8.158;2022-07-29T10:58:23;23.20;49.70
71188;DHT22;58893;53.130;8.158;2022-07-29T11:00:51;23.30;49.70
71188;DHT22;58893;53.130;8.158;2022-07-29T11:03:42;23.30;49.40
71188;DHT22;58893;53.130;8.158;2022-07-29T11:06:09;23.30;49.00
71188;DHT22;58893;53.130;8.158;2022-07-29T11:08:35;23.40;49.30
71188;DHT22;58893;53.130;8.158;2022-07-29T11:13:49;23.50;49.50
71188;DHT22;58893;53.130;8.158;2022-07-29T11:16:16;23.50;49.30
71188;DHT22;58893;53.130;8.158;2022-07-29T11:21:38;23.70;48.70
71188;DHT22;58893;53.130;8.158;2022-07-29T11:24:23;23.70;48.70
71188;DHT22;58893;53.130;8.158;2022-07-29T11:27:14;23.80;48.60
71188;DHT22;58893;53.130;8.158;2022-07-29T11:32:15;23.90;48.50
71188;DHT22;58893;53.130;8.158;2022-07-29T11:34:41;24.00;47.60
71188;DHT22;58893;53.130;8.158;2022-07-29T11:39:44;24.00;47.40
71188;DHT22;58893;53.130;8.158;2022-07-29T11:45:03;24.10;46.70
71188;DHT22;58893;53.130;8.158;2022-07-29T11:47:32;24.20;45.90
71188;DHT22;58893;53.130;8.158;2022-07-29T11:50:00;24.20;45.60
71188;DHT22;58893;53.130;8.158;2022-07-29T11:52:43;24.20;45.90
71188;DHT22;58893;53.130;8.158;2022-07-29T11:55:16;24.20;45.90
71188;DHT22;58893;53.130;8.158;2022-07-29T12:00:45;24.20;45.70
71188;DHT22;58893;53.130;8.158;2022-07-29T12:03:11;24.20;45.60
71188;DHT22;58893;53.130;8.158;2022-07-29T12:05:41;24.20;45.60
71188;DHT22;58893;53.130;8.158;2022-07-29T12:08:19;24.20;45.70
71188;DHT22;58893;53.130;8.158;2022-07-29T12:10:48;24.20;46.00
71188;DHT22;58893;53.130;8.158;2022-07-29T12:13:16;24.30;46.50
71188;DHT22;58893;53.130;8.158;2022-07-29T12:15:42;24.30;46.50
71188;DHT22;58893;53.130;8.158;2022-07-29T12:18:20;24.30;46.70
71188;DHT22;58893;53.130;8.158;2022-07-29T12:20:46;24.20;46.70
71188;DHT22;58893;53.130;8.158;2022-07-29T12:23:14;24.30;46.90
71188;DHT22;58893;53.130;8.158;2022-07-29T12:25:42;24.20;47.00
71188;DHT22;58893;53.130;8.158;2022-07-29T12:28:11;24.20;47.00
71188;DHT22;58893;53.130;8.158;2022-07-29T12:30:43;24.30;47.10
71188;DHT22;58893;53.130;8.158;2022-07-29T12:33:39;24.20;46.80
71188;DHT22;58893;53.130;8.158;2022-07-29T12:36:05;24.20;47.10
71188;DHT22;58893;53.130;8.158;2022-07-29T12:38:30;24.20;47.30
71188;DHT22;58893;53.130;8.158;2022-07-29T12:40:56;24.20;46.80
71188;DHT22;58893;53.130;8.158;2022-07-29T12:43:24;24.20;46.90
71188;DHT22;58893;53.130;8.158;2022-07-29T12:45:55;24.20;46.90
71188;DHT22;58893;53.130;8.158;2022-07-29T12:48:41;24.20;46.80
71188;DHT22;58893;53.130;8.158;2022-07-29T12:51:08;24.30;46.70
71188;DHT22;58893;53.130;8.158;2022-07-29T12:53:38;24.30;47.40
71188;DHT22;58893;53.130;8.158;2022-07-29T12:56:04;24.30;47.00
71188;DHT22;58893;53.130;8.158;2022-07-29T12:58:40;24.30;47.30
71188;DHT22;58893;53.130;8.158;2022-07-29T13:01:16;24.30;47.40
71188;DHT22;58893;53.130;8.158;2022-07-29T13:06:47;24.30;46.60
71188;DHT22;58893;53.130;8.158;2022-07-29T13:11:45;24.30;46.60
71188;DHT22;58893;53.130;8.158;2022-07-29T13:14:34;24.30;46.70
71188;DHT22;58893;53.130;8.158;2022-07-29T13:17:14;24.30;46.80
71188;DHT22;58893;53.130;8.158;2022-07-29T13:22:20;24.30;45.90
71188;DHT22;58893;53.130;8.158;2022-07-29T13:25:06;24.30;45.70
71188;DHT22;58893;53.130;8.158;2022-07-29T13:27:34;24.30;45.40
71188;DHT22;58893;53.130;8.158;2022-07-29T13:30:03;24.30;45.10
71188;DHT22;58893;53.130;8.158;2022-07-29T13:32:30;24.30;45.10
71188;DHT22;58893;53.130;8.158;2022-07-29T13:34:58;24.40;45.10
71188;DHT22;58893;53.130;8.158;2022-07-29T13:37:25;24.40;45.00
71188;DHT22;58893;53.130;8.158;2022-07-29T13:39:51;24.40;44.90
71188;DHT22;58893;53.130;8.158;2022-07-29T13:42:18;24.40;45.00
71188;DHT22;58893;53.130;8.158;2022-07-29T13:44:44;24.40;45.10
71188;DHT22;58893;53.130;8.158;2022-07-29T13:47:09;24.40;45.10
71188;DHT22;58893;53.130;8.158;2022-07-29T13:49:35;24.40;44.90
71188;DHT22;58893;53.130;8.158;2022-07-29T13:52:01;24.40;44.50
71188;DHT22;58893;53.130;8.158;2022-07-29T13:54:27;24.30;44.40
71188;DHT22;58893;53.130;8.158;2022-07-29T13:56:52;24.30;44.30
71188;DHT22;58893;53.130;8.158;2022-07-29T13:59:18;24.30;44.00
71188;DHT22;58893;53.130;8.158;2022-07-29T14:01:44;24.30;44.00
71188;DHT22;58893;53.130;8.158;2022-07-29T14:04:10;24.30;44.40
71188;DHT22;58893;53.130;8.158;2022-07-29T14:06:36;24.30;44.60
71188;DHT22;58893;53.130;8.158;2022-07-29T14:09:03;24.30;44.70
71188;DHT22;58893;53.130;8.158;2022-07-29T14:11:31;24.30;44.80
71188;DHT22;58893;53.130;8.158;2022-07-29T14:13:57;24.30;44.40
71188;DHT22;58893;53.130;8.158;2022-07-29T14:16:23;24.30;44.10
71188;DHT22;58893;53.130;8.158;2022-07-29T14:18:48;24.30;43.60
71188;DHT22;58893;53.130;8.158;2022-07-29T14:21:14;24.30;43.60
71188;DHT22;58893;53.130;8.158;2022-07-29T14:23:39;24.30;43.60
71188;DHT22;58893;53.130;8.158;2022-07-29T14:26:06;24.30;43.80
71188;DHT22;58893;53.130;8.158;2022-07-29T14:28:32;24.30;43.60
71188;DHT22;58893;53.130;8.158;2022-07-29T14:30:57;24.30;43.50
71188;DHT22;58893;53.130;8.158;2022-07-29T14:33:23;24.30;43.60
71188;DHT22;58893;53.130;8.158;2022-07-29T14:35:49;24.30;43.60
71188;DHT22;58893;53.130;8.158;2022-07-29T14:38:15;24.30;43.70
71188;DHT22;58893;53.130;8.158;2022-07-29T14:40:40;24.30;43.90
71188;DHT22;58893;53.130;8.158;2022-07-29T14:43:08;24.30;44.20
71188;DHT22;58893;53.130;8.158;2022-07-29T14:45:34;24.30;44.60
71188;DHT22;58893;53.130;8.158;2022-07-29T14:48:00;24.20;45.00
71188;DHT22;58893;53.130;8.158;2022-07-29T14:50:25;24.20;45.40
71188;DHT22;58893;53.130;8.158;2022-07-29T14:52:52;24.20;45.80
71188;DHT22;58893;53.130;8.158;2022-07-29T14:55:17;24.20;46.60
71188;DHT22;58893;53.130;8.158;2022-07-29T14:57:43;24.20;47.30
71188;DHT22;58893;53.130;8.158;2022-07-29T15:00:09;24.20;47.90
71188;DHT22;58893;53.130;8.158;2022-07-29T15:02:36;24.10;48.40
71188;DHT22;58893;53.130;8.158;2022-07-29T15:05:01;24.10;49.00
71188;DHT22;58893;53.130;8.158;2022-07-29T15:07:27;24.10;50.00
71188;DHT22;58893;53.130;8.158;2022-07-29T15:09:53;24.00;51.10
71188;DHT22;58893;53.130;8.158;2022-07-29T15:12:18;24.00;52.20
71188;DHT22;58893;53.130;8.158;2022-07-29T15:14:44;24.00;53.60
71188;DHT22;58893;53.130;8.158;2022-07-29T15:17:10;23.90;54.40
71188;DHT22;58893;53.130;8.158;2022-07-29T15:19:35;23.80;55.20
71188;DHT22;58893;53.130;8.158;2022-07-29T15:22:01;23.80;56.10
71188;DHT22;58893;53.130;8.158;2022-07-29T15:24:27;23.80;57.10
71188;DHT22;58893;53.130;8.158;2022-07-29T15:26:53;23.70;58.30
71188;DHT22;58893;53.130;8.158;2022-07-29T15:29:18;23.60;59.40
71188;DHT22;58893;53.130;8.158;2022-07-29T15:31:44;23.60;60.80
71188;DHT22;58893;53.130;8.158;2022-07-29T15:34:10;23.50;61.90
71188;DHT22;58893;53.130;8.158;2022-07-29T15:36:35;23.40;62.70
71188;DHT22;58893;53.130;8.158;2022-07-29T15:39:01;23.30;63.30
71188;DHT22;58893;53.130;8.158;2022-07-29T15:41:27;23.30;64.10
71188;DHT22;58893;53.130;8.158;2022-07-29T15:43:52;23.30;64.90
71188;DHT22;58893;53.130;8.158;2022-07-29T15:46:19;23.20;65.20
71188;DHT22;58893;53.130;8.158;2022-07-29T15:49:05;23.10;65.40
71188;DHT22;58893;53.130;8.158;2022-07-29T15:51:32;23.10;65.30
71188;DHT22;58893;53.130;8.158;2022-07-29T15:53:57;23.10;65.20
71188;DHT22;58893;53.130;8.158;2022-07-29T15:56:23;23.00;64.90
71188;DHT22;58893;53.130;8.158;2022-07-29T15:58:49;23.00;65.10
71188;DHT22;58893;53.130;8.158;2022-07-29T16:01:15;23.00;65.20
71188;DHT22;58893;53.130;8.158;2022-07-29T16:03:41;22.90;65.20
71188;DHT22;58893;53.130;8.158;2022-07-29T16:06:06;22.90;65.30
71188;DHT22;58893;53.130;8.158;2022-07-29T16:08:32;22.90;65.50
71188;DHT22;58893;53.130;8.158;2022-07-29T16:10:58;22.90;65.40
71188;DHT22;58893;53.130;8.158;2022-07-29T16:13:23;22.80;65.20
71188;DHT22;58893;53.130;8.158;2022-07-29T16:15:49;22.80;64.90
71188;DHT22;58893;53.130;8.158;2022-07-29T16:18:15;22.80;64.50
71188;DHT22;58893;53.130;8.158;2022-07-29T16:20:40;22.80;64.00
71188;DHT22;58893;53.130;8.158;2022-07-29T16:23:06;22.80;63.60
71188;DHT22;58893;53.130;8.158;2022-07-29T16:25:34;22.70;63.20